createdAt,value
2023-04-12T00:04:04.515Z,35.92
2023-04-12T00:09:08.836Z,40.70
2023-04-12T00:14:12.376Z,46.67
2023-04-12T00:19:18.033Z,41.92
2023-04-12T00:24:21.571Z,45.30
2023-04-12T00:29:25.241Z,44.70
2023-04-12T00:34:30.150Z,49.10
2023-04-12T00:44:36.860Z,41.00
2023-04-12T00:49:41.921Z,35.17
2023-04-12T00:54:45.946Z,34.53
2023-04-12T00:59:49.407Z,42.90
2023-04-12T01:04:54.310Z,37.30
2023-04-12T01:15:08.900Z,36.25
2023-04-12T01:20:17.327Z,33.55
2023-04-12T01:25:34.623Z,33.13
2023-04-12T01:30:40.821Z,34.22
2023-04-12T01:35:45.834Z,44.42
2023-04-12T01:40:50.331Z,36.72
2023-04-12T01:45:55.600Z,38.85
2023-04-12T01:51:06.572Z,35.60
2023-04-12T01:56:11.443Z,36.80
2023-04-12T02:06:21.897Z,37.80
2023-04-12T02:16:30.239Z,37.03
2023-04-12T02:21:42.209Z,40.97
2023-04-12T02:26:46.353Z,41.22
2023-04-12T02:31:51.352Z,38.83
2023-04-12T02:36:54.846Z,38.20
2023-04-12T02:41:58.353Z,42.28
2023-04-12T02:47:03.712Z,42.38
2023-04-12T02:52:07.257Z,55.60
2023-04-12T02:57:11.684Z,46.53
2023-04-12T03:02:16.948Z,47.90
2023-04-12T03:07:21.425Z,46.30
2023-04-12T03:12:24.916Z,40.00
2023-04-12T03:17:29.883Z,40.60
2023-04-12T03:22:33.357Z,41.33
2023-04-12T03:27:36.843Z,47.20
2023-04-12T03:32:42.778Z,46.10
2023-04-12T03:37:46.297Z,42.75
2023-04-12T03:42:49.851Z,36.03
2023-04-12T03:47:54.900Z,37.72
2023-04-12T03:52:58.397Z,46.30
2023-04-12T03:58:02.180Z,42.35
2023-04-12T04:03:07.958Z,41.93
2023-04-12T04:08:11.574Z,45.20
2023-04-12T04:13:15.140Z,44.30
2023-04-12T04:18:20.031Z,44.13
2023-04-12T04:28:29.363Z,41.20
2023-04-12T04:33:34.384Z,41.75
2023-04-12T04:38:38.059Z,46.72
2023-04-12T04:43:42.835Z,36.22
2023-04-12T04:48:47.894Z,43.38
2023-04-12T04:53:51.489Z,35.38
2023-04-12T04:58:57.000Z,33.80
2023-04-12T05:04:02.308Z,41.05
2023-04-12T05:09:05.924Z,31.48
2023-04-12T05:14:11.293Z,37.63
2023-04-12T05:19:17.322Z,35.80
2023-04-12T05:24:20.986Z,38.15
2023-04-12T05:29:24.431Z,34.40
2023-04-12T05:34:29.399Z,36.70
2023-04-12T05:39:35.368Z,36.22
2023-04-12T05:44:40.392Z,32.78
2023-04-12T05:49:45.236Z,28.45
2023-04-12T05:54:49.196Z,32.53
2023-04-12T05:59:52.608Z,32.88
2023-04-12T06:10:02.079Z,14.10
2023-04-12T06:15:08.039Z,16.50
2023-04-12T06:20:14.259Z,19.75
2023-04-12T06:25:17.777Z,15.15
2023-04-12T06:30:21.463Z,18.08
2023-04-12T06:35:26.344Z,19.38
2023-04-12T06:40:30.192Z,23.17
2023-04-12T06:45:33.744Z,22.02
2023-04-12T06:50:38.818Z,20.63
2023-04-12T06:55:42.650Z,20.88
2023-04-12T07:00:46.133Z,22.35
2023-04-12T07:05:51.704Z,22.73
2023-04-12T07:10:55.473Z,20.08
2023-04-12T07:16:01.062Z,20.75
2023-04-12T07:21:08.006Z,20.60
2023-04-12T07:26:11.631Z,14.70
2023-04-12T07:31:15.108Z,18.42
2023-04-12T07:36:22.251Z,14.88
2023-04-12T07:41:25.757Z,15.95
2023-04-12T07:46:29.391Z,18.70
2023-04-12T07:51:34.307Z,13.90
2023-04-12T07:56:37.931Z,16.27
2023-04-12T08:01:41.445Z,17.80
2023-04-12T08:06:46.491Z,14.88
2023-04-12T08:11:50.029Z,13.88
2023-04-12T08:16:53.461Z,20.38
2023-04-12T08:21:58.293Z,19.70
2023-04-12T08:27:02.497Z,15.38
2023-04-12T08:32:07.373Z,19.55
2023-04-12T08:37:12.482Z,18.58
2023-04-12T08:42:17.326Z,16.75
2023-04-12T08:47:22.427Z,15.88
2023-04-12T08:52:28.502Z,15.68
2023-04-12T08:57:32.719Z,17.20
2023-04-12T09:02:37.503Z,15.75
2023-04-12T09:07:42.707Z,21.98
2023-04-12T09:12:50.956Z,24.10
2023-04-12T09:18:07.179Z,25.10
2023-04-12T09:23:22.649Z,24.10
2023-04-12T09:28:27.883Z,22.65
2023-04-12T09:33:36.423Z,23.10
2023-04-12T09:38:44.014Z,16.48
2023-04-12T09:43:47.472Z,16.80
2023-04-12T09:48:52.490Z,22.85
2023-04-12T09:54:01.070Z,16.92
2023-04-12T09:59:05.978Z,21.23
2023-04-12T10:04:10.633Z,17.45
2023-04-12T10:09:15.832Z,20.27
2023-04-12T10:14:20.944Z,21.45
2023-04-12T10:19:26.722Z,13.75
2023-04-12T10:24:32.226Z,16.80
2023-04-12T10:29:37.457Z,16.10
2023-04-12T10:34:44.093Z,14.95
2023-04-12T10:39:54.236Z,17.63
2023-04-12T10:45:01.014Z,16.40
2023-04-12T10:50:24.759Z,14.90
2023-04-12T10:55:33.725Z,17.77
2023-04-12T11:01:12.574Z,15.70
2023-04-12T11:06:26.999Z,19.40
2023-04-12T11:11:36.109Z,18.38
2023-04-12T11:17:12.954Z,20.23
2023-04-12T11:22:18.353Z,20.48
2023-04-12T11:27:24.838Z,18.08
2023-04-12T11:32:30.521Z,27.17
2023-04-12T11:37:35.310Z,16.23
2023-04-12T11:42:41.804Z,18.55
2023-04-12T11:47:45.569Z,16.55
2023-04-12T11:52:49.101Z,17.08
2023-04-12T11:57:56.173Z,14.00
2023-04-12T12:03:07.726Z,15.73
2023-04-12T12:08:14.651Z,12.95
2023-04-12T12:18:29.086Z,18.42
2023-04-12T12:23:33.282Z,15.10
2023-04-12T12:28:39.908Z,14.60
2023-04-12T12:33:47.060Z,16.10
2023-04-12T12:38:54.651Z,13.50
2023-04-12T12:43:59.797Z,14.63
2023-04-12T12:49:03.383Z,15.57
2023-04-12T12:54:07.899Z,15.53
2023-04-12T12:59:12.831Z,12.57
2023-04-12T13:04:16.393Z,13.18
2023-04-12T13:09:20.018Z,13.52
2023-04-12T13:14:24.936Z,16.30
2023-04-12T13:19:28.422Z,12.40
2023-04-12T13:24:31.854Z,14.40
2023-04-12T13:29:36.967Z,10.00
2023-04-12T13:34:40.521Z,17.13
2023-04-12T13:39:44.891Z,16.97
2023-04-12T13:49:54.597Z,14.13
2023-04-12T13:54:59.781Z,18.30
2023-04-12T14:00:08.072Z,14.02
2023-04-12T14:05:12.685Z,13.48
2023-04-12T14:10:16.312Z,20.30
2023-04-12T14:15:21.917Z,15.90
2023-04-12T14:20:25.708Z,12.38
2023-04-12T14:25:29.271Z,11.63
2023-04-12T14:30:34.289Z,14.03
2023-04-12T14:35:37.806Z,13.40
2023-04-12T14:40:41.394Z,12.63
2023-04-12T14:45:46.504Z,13.63
2023-04-12T14:50:49.968Z,15.52
2023-04-12T14:55:53.523Z,11.63
2023-04-12T15:01:00.312Z,11.37
2023-04-12T15:06:04.229Z,14.13
2023-04-12T15:11:10.410Z,14.13
2023-04-12T15:16:15.850Z,16.33
2023-04-12T15:21:19.494Z,12.30
2023-04-12T15:26:22.984Z,11.53
2023-04-12T15:31:28.419Z,14.57
2023-04-12T15:36:34.978Z,14.27
2023-04-12T15:41:40.425Z,15.02
2023-04-12T15:46:56.014Z,12.60
2023-04-12T15:52:03.201Z,15.80
2023-04-12T15:57:09.684Z,17.10
2023-04-12T16:02:14.899Z,15.93
2023-04-12T16:07:18.963Z,20.50
2023-04-12T16:12:22.398Z,17.65
2023-04-12T16:17:27.283Z,18.25
2023-04-12T16:22:30.709Z,19.10
2023-04-12T16:27:34.309Z,26.08
2023-04-12T16:32:39.315Z,23.00
2023-04-12T16:37:43.514Z,17.40
2023-04-12T16:42:47.112Z,16.98
2023-04-12T16:47:52.013Z,25.45
2023-04-12T16:52:55.530Z,19.20
2023-04-12T16:57:59.001Z,17.60
2023-04-12T17:03:04.247Z,25.55
2023-04-12T17:08:09.873Z,15.50
2023-04-12T17:13:13.724Z,17.38
2023-04-12T17:18:18.632Z,26.00
2023-04-12T17:23:22.175Z,21.42
2023-04-12T17:28:25.983Z,22.50
2023-04-12T17:33:30.866Z,21.27
2023-04-12T17:38:34.751Z,18.17
2023-04-12T17:43:38.223Z,22.93
2023-04-12T17:48:43.282Z,22.00
2023-04-12T17:53:47.053Z,28.05
2023-04-12T17:58:50.533Z,23.00
2023-04-12T18:03:57.621Z,27.98
2023-04-12T18:09:02.570Z,26.52
2023-04-12T18:14:06.180Z,31.70
2023-04-12T18:19:11.633Z,30.83
2023-04-12T18:24:15.722Z,28.85
2023-04-12T18:29:19.598Z,52.28
2023-04-12T18:34:24.745Z,27.27
2023-04-12T18:39:28.665Z,34.15
2023-04-12T18:44:32.636Z,26.03
2023-04-12T18:49:37.568Z,41.90
2023-04-12T18:54:41.039Z,33.40
2023-04-12T18:59:47.972Z,26.67
2023-04-12T19:04:53.045Z,32.97
2023-04-12T19:09:56.600Z,20.52
2023-04-12T19:15:00.169Z,23.75
2023-04-12T19:20:05.277Z,29.35
2023-04-12T19:25:09.968Z,21.83
2023-04-12T19:30:14.952Z,20.80
2023-04-12T19:35:19.847Z,25.92
2023-04-12T19:40:23.291Z,25.75
2023-04-12T19:45:28.053Z,21.20
2023-04-12T19:50:33.017Z,21.55
2023-04-12T19:55:36.723Z,28.98
2023-04-12T20:00:41.495Z,28.38
2023-04-12T20:10:51.087Z,39.60
2023-04-12T20:15:54.598Z,42.65
2023-04-12T20:20:59.441Z,39.75
2023-04-12T20:31:06.720Z,38.13
2023-04-12T20:36:13.428Z,41.83
2023-04-12T20:41:16.875Z,37.00
2023-04-12T20:46:25.751Z,44.47
2023-04-12T20:51:30.914Z,41.92
2023-04-12T21:01:37.689Z,23.48
2023-04-12T21:06:42.533Z,32.90
2023-04-12T21:16:49.900Z,24.88
2023-04-12T21:21:55.048Z,26.55
2023-04-12T21:26:58.527Z,29.67
2023-04-12T21:32:02.498Z,35.00
2023-04-12T21:37:07.872Z,26.60
2023-04-12T21:42:11.343Z,38.38
2023-04-12T21:47:14.836Z,31.40
2023-04-12T21:52:19.658Z,24.02
2023-04-12T21:57:23.582Z,21.70
2023-04-12T22:02:27.690Z,28.67
2023-04-12T22:07:33.682Z,34.87
2023-04-12T22:12:37.842Z,30.58
2023-04-12T22:17:41.398Z,29.23
2023-04-12T22:22:46.374Z,24.88
2023-04-12T22:32:53.912Z,22.40
2023-04-12T22:37:58.837Z,21.63
2023-04-12T22:48:06.897Z,28.58
2023-04-12T22:58:17.805Z,28.23
2023-04-12T23:03:21.780Z,28.83
2023-04-12T23:08:26.797Z,26.70
2023-04-12T23:18:33.900Z,28.42
2023-04-12T23:23:38.942Z,29.05
2023-04-12T23:28:42.614Z,39.50
2023-04-12T23:33:46.920Z,31.83
2023-04-12T23:38:55.519Z,32.65
2023-04-12T23:43:59.689Z,26.15
2023-04-12T23:49:03.512Z,26.02
2023-04-12T23:54:08.538Z,27.65
2023-04-12T23:59:11.939Z,26.63
